Time;durP1;ratioP1;P1;durP2;ratioP2;P2;SDS_P1;SDS_P2;PMS_P1;PMS_P2;Temp;Humidity;BMP_temperature;BMP_pressure;BME280_temperature;BME280_humidity;BME280_pressure;Samples;Min_cycle;Max_cycle;Signal;HPM_P1;HPM_P2
2022/09/12 00:01:22;;;;;;;10.52;9.52;;;16.60;99.90;;;;;;5066452;28;20106;-36
2022/09/12 00:03:51;;;;;;;10.45;9.45;;;16.50;99.90;;;;;;5065820;28;20036;-36
2022/09/12 00:06:26;;;;;;;10.82;9.73;;;16.50;99.90;;;;;;5067375;28;20484;-36
2022/09/12 00:08:56;;;;;;;11.00;9.90;;;16.50;99.90;;;;;;5066448;28;20039;-37
2022/09/12 00:11:22;;;;;;;11.05;9.95;;;16.50;99.90;;;;;;5067284;28;20033;-37
2022/09/12 00:13:48;;;;;;;11.20;10.10;;;16.50;99.90;;;;;;5066894;28;20028;-36
2022/09/12 00:16:21;;;;;;;10.50;9.40;;;16.50;99.90;;;;;;5066674;28;20386;-36
2022/09/12 00:18:47;;;;;;;10.70;9.65;;;16.40;99.90;;;;;;5066923;28;20025;-37
2022/09/12 00:21:15;;;;;;;13.15;10.10;;;16.40;99.90;;;;;;5066397;28;20055;-37
2022/09/12 00:23:40;;;;;;;10.75;9.75;;;16.40;99.90;;;;;;5066428;28;20032;-36
2022/09/12 00:26:06;;;;;;;11.65;10.52;;;16.40;99.90;;;;;;5067374;28;20025;-37
2022/09/12 00:28:34;;;;;;;11.65;10.43;;;16.30;99.90;;;;;;5066028;28;20017;-38
2022/09/12 00:31:04;;;;;;;12.40;11.10;;;16.30;99.90;;;;;;5066764;28;20040;-37
2022/09/12 00:33:30;;;;;;;11.90;10.73;;;16.30;99.90;;;;;;5066069;28;20020;-36
2022/09/12 00:35:55;;;;;;;11.98;10.77;;;16.30;99.90;;;;;;5066319;28;20025;-37
2022/09/12 00:38:21;;;;;;;12.02;10.73;;;16.30;99.90;;;;;;5066684;28;20535;-40
2022/09/12 00:40:47;;;;;;;12.07;10.95;;;16.30;99.90;;;;;;5066064;28;20036;-42
2022/09/12 00:43:37;;;;;;;11.63;10.52;;;16.30;99.90;;;;;;5065699;28;20031;-37
2022/09/12 00:46:35;;;;;;;13.32;12.02;;;16.20;99.90;;;;;;5066417;28;21019;-36
2022/09/12 00:49:11;;;;;;;12.90;11.48;;;16.20;99.90;;;;;;5066632;28;20035;-37
2022/09/12 00:51:39;;;;;;;13.32;12.02;;;16.10;99.90;;;;;;5065708;28;20028;-37
2022/09/12 00:54:12;;;;;;;13.20;11.80;;;16.10;99.90;;;;;;5066723;28;20468;-36
2022/09/12 00:56:41;;;;;;;13.25;11.95;;;16.10;99.90;;;;;;5065343;28;20059;-38
2022/09/12 00:59:16;;;;;;;13.50;12.10;;;16.10;99.90;;;;;;5065942;28;20033;-37
2022/09/12 01:01:43;;;;;;;13.18;11.75;;;16.10;99.90;;;;;;5066619;28;20024;-36
2022/09/12 01:04:10;;;;;;;13.13;11.80;;;16.00;99.90;;;;;;5065266;28;20108;-37
2022/09/12 01:06:40;;;;;;;13.80;12.40;;;16.10;99.90;;;;;;5065456;28;20131;-37
2022/09/12 01:09:07;;;;;;;13.45;12.15;;;16.00;99.90;;;;;;5065617;28;20029;-37
2022/09/12 01:11:37;;;;;;;14.65;13.20;;;16.00;99.90;;;;;;5064163;28;20472;-37
2022/09/12 01:14:03;;;;;;;15.40;13.90;;;16.00;99.90;;;;;;5065457;28;20025;-36
2022/09/12 01:16:28;;;;;;;14.60;12.13;;;16.00;99.90;;;;;;5065576;28;20422;-37
2022/09/12 01:19:28;;;;;;;14.68;13.23;;;16.00;99.90;;;;;;5065281;28;20471;-37
2022/09/12 01:22:02;;;;;;;16.20;12.63;;;15.90;99.90;;;;;;5057931;28;20131;-37
2022/09/12 01:24:55;;;;;;;14.80;13.13;;;15.90;99.90;;;;;;5064405;28;20028;-36
2022/09/12 01:28:02;;;;;;;13.93;12.52;;;15.90;99.90;;;;;;5065759;28;20113;-37
2022/09/12 01:30:40;;;;;;;14.80;13.23;;;15.90;99.90;;;;;;5065372;28;20090;-37
2022/09/12 01:33:15;;;;;;;14.25;12.75;;;15.90;99.90;;;;;;5064719;28;20040;-37
2022/09/12 01:35:59;;;;;;;15.13;13.63;;;15.90;99.90;;;;;;5065624;28;20020;-36
2022/09/12 01:38:49;;;;;;;13.98;12.48;;;15.90;99.90;;;;;;5046056;28;20479;-36
2022/09/12 01:41:20;;;;;;;14.55;13.02;;;15.80;99.90;;;;;;5063404;28;20798;-37
2022/09/12 01:44:02;;;;;;;13.98;12.52;;;15.80;99.90;;;;;;5062008;28;20020;-37
2022/09/12 01:46:28;;;;;;;14.85;13.35;;;15.80;99.90;;;;;;5061970;28;20075;-37
2022/09/12 01:49:12;;;;;;;13.18;11.80;;;15.80;99.90;;;;;;5065020;28;20438;-39
2022/09/12 01:51:43;;;;;;;13.73;12.13;;;15.80;99.90;;;;;;5064721;28;20480;-37
2022/09/12 01:54:19;;;;;;;13.60;12.25;;;15.70;99.90;;;;;;5064683;28;20024;-37
2022/09/12 01:56:50;;;;;;;15.13;12.88;;;15.80;99.90;;;;;;5064269;28;20052;-37
2022/09/12 01:59:18;;;;;;;16.92;13.48;;;15.70;99.90;;;;;;5065135;28;20525;-38
2022/09/12 02:02:13;;;;;;;16.83;14.23;;;15.70;99.90;;;;;;5064095;28;20374;-36
2022/09/12 02:05:15;;;;;;;15.88;14.18;;;15.70;99.90;;;;;;5044378;28;20036;-36
2022/09/12 02:07:48;;;;;;;16.42;13.73;;;15.80;99.90;;;;;;5059031;28;20492;-37
2022/09/12 02:10:27;;;;;;;17.00;15.25;;;15.70;99.90;;;;;;5064627;28;20510;-37
2022/09/12 02:13:02;;;;;;;16.55;14.82;;;15.70;99.90;;;;;;5062263;28;20472;-37
2022/09/12 02:15:35;;;;;;;16.75;14.90;;;15.70;99.90;;;;;;5063815;28;20479;-37
2022/09/12 02:18:04;;;;;;;17.00;15.20;;;15.70;99.90;;;;;;5064315;28;20029;-38
2022/09/12 02:20:35;;;;;;;17.67;15.20;;;15.70;99.90;;;;;;5064740;28;20036;-36
2022/09/12 02:23:04;;;;;;;17.73;15.82;;;15.70;99.90;;;;;;5063271;28;20502;-36
2022/09/12 02:25:30;;;;;;;17.20;14.98;;;15.60;99.90;;;;;;5064653;28;20024;-38
2022/09/12 02:28:03;;;;;;;19.15;16.42;;;15.60;99.90;;;;;;5063114;28;20024;-36
2022/09/12 02:30:36;;;;;;;;;;;15.60;99.90;;;;;;5064847;28;20044;-36
2022/09/12 02:33:33;;;;;;;20.17;16.50;;;15.60;99.90;;;;;;5063618;28;20011;-36
2022/09/12 02:36:21;;;;;;;18.00;15.57;;;15.60;99.90;;;;;;5055311;28;20492;-37
2022/09/12 02:38:47;;;;;;;18.33;15.50;;;15.50;99.90;;;;;;5061321;28;20036;-38
2022/09/12 02:41:17;;;;;;;18.27;15.95;;;15.50;99.90;;;;;;5064891;28;20298;-38
2022/09/12 02:43:43;;;;;;;20.15;16.75;;;15.50;99.90;;;;;;5062648;28;20060;-37
2022/09/12 02:46:16;;;;;;;19.85;17.20;;;15.50;99.90;;;;;;5064783;28;20097;-38
2022/09/12 02:48:42;;;;;;;20.85;16.27;;;15.50;99.90;;;;;;5064687;28;20087;-36
2022/09/12 02:51:09;;;;;;;22.02;17.33;;;15.50;99.90;;;;;;5063702;28;20150;-38
2022/09/12 02:53:36;;;;;;;20.88;16.98;;;15.50;99.90;;;;;;5063697;28;20028;-37
2022/09/12 02:56:06;;;;;;;20.60;17.35;;;15.50;99.90;;;;;;5063676;28;20154;-38
2022/09/12 02:58:32;;;;;;;21.67;17.88;;;15.40;99.90;;;;;;5063994;28;20020;-37
2022/09/12 03:01:32;;;;;;;22.58;18.48;;;15.40;99.90;;;;;;5064833;28;20163;-36
2022/09/12 03:04:35;;;;;;;22.52;17.40;;;15.40;99.90;;;;;;5061259;28;20127;-38
2022/09/12 03:07:19;;;;;;;21.40;17.88;;;15.40;99.90;;;;;;5064974;28;20039;-38
2022/09/12 03:09:57;;;;;;;21.92;17.95;;;15.40;99.90;;;;;;5060544;28;20123;-37
2022/09/12 03:12:44;;;;;;;24.95;19.17;;;15.40;99.90;;;;;;5064520;28;20074;-36
2022/09/12 03:15:28;;;;;;;24.83;18.85;;;15.30;99.90;;;;;;5063397;28;20035;-37
2022/09/12 03:18:05;;;;;;;21.02;18.33;;;15.30;99.90;;;;;;5062960;28;20024;-37
2022/09/12 03:20:59;;;;;;;22.52;18.77;;;15.30;99.90;;;;;;5063485;28;20528;-36
2022/09/12 03:23:37;;;;;;;20.77;18.52;;;15.30;99.90;;;;;;5063082;28;20013;-37
2022/09/12 03:26:10;;;;;;;22.17;19.30;;;15.30;99.90;;;;;;5063284;28;20068;-36
2022/09/12 03:28:38;;;;;;;22.98;18.92;;;15.30;99.90;;;;;;5063601;28;20090;-38
2022/09/12 03:31:17;;;;;;;22.73;18.65;;;15.30;99.90;;;;;;5062801;28;20106;-38
2022/09/12 03:33:43;;;;;;;21.20;17.15;;;15.30;99.90;;;;;;5064311;28;20116;-38
2022/09/12 03:36:20;;;;;;;20.80;17.52;;;15.30;99.90;;;;;;5067696;28;20016;-39
2022/09/12 03:38:45;;;;;;;22.65;18.23;;;15.30;99.90;;;;;;5066803;28;20038;-38
2022/09/12 03:41:11;;;;;;;23.15;18.65;;;15.30;99.90;;;;;;5067827;28;20094;-39
2022/09/12 03:43:36;;;;;;;25.58;20.75;;;15.30;99.90;;;;;;5067290;28;20667;-37
2022/09/12 03:46:02;;;;;;;25.23;20.73;;;15.30;99.90;;;;;;5066759;28;20472;-37
2022/09/12 03:48:27;;;;;;;26.73;20.75;;;15.30;99.90;;;;;;5067149;28;20039;-38
2022/09/12 03:50:53;;;;;;;27.73;21.75;;;15.30;99.90;;;;;;5067339;28;20028;-36
2022/09/12 03:53:18;;;;;;;26.67;21.90;;;15.30;99.90;;;;;;5066784;28;20484;-37
2022/09/12 03:55:44;;;;;;;26.77;21.98;;;15.30;99.90;;;;;;5066454;28;20536;-37
2022/09/12 03:58:09;;;;;;;29.23;22.55;;;15.30;99.90;;;;;;5068110;28;20507;-37
2022/09/12 04:00:37;;;;;;;26.98;22.25;;;15.30;99.90;;;;;;5066427;28;20056;-38
2022/09/12 04:03:03;;;;;;;27.02;21.40;;;15.30;99.90;;;;;;5067352;28;20152;-36
2022/09/12 04:05:28;;;;;;;28.50;22.80;;;15.30;99.90;;;;;;5067024;28;20463;-37
2022/09/12 04:07:54;;;;;;;28.88;22.42;;;15.20;99.90;;;;;;5066127;28;20441;-37
2022/09/12 04:10:20;;;;;;;28.80;22.27;;;15.20;99.90;;;;;;5067729;28;20154;-37
2022/09/12 04:12:45;;;;;;;29.73;23.23;;;15.20;99.90;;;;;;5066064;28;20537;-37
2022/09/12 04:15:11;;;;;;;28.30;21.90;;;15.30;99.90;;;;;;5066325;28;20025;-36
2022/09/12 04:17:37;;;;;;;30.23;22.23;;;15.30;99.90;;;;;;5067300;28;20384;-39
2022/09/12 04:20:02;;;;;;;28.35;21.45;;;15.20;99.90;;;;;;5066560;28;20103;-36
2022/09/12 04:22:30;;;;;;;26.58;22.00;;;15.20;99.90;;;;;;5065739;28;20067;-38
2022/09/12 04:24:56;;;;;;;24.55;20.27;;;15.30;99.90;;;;;;5066399;28;20020;-36
2022/09/12 04:27:21;;;;;;;26.90;20.42;;;15.20;99.90;;;;;;5065669;28;20047;-36
2022/09/12 04:29:47;;;;;;;29.45;21.92;;;15.30;99.90;;;;;;5066276;28;20036;-37
2022/09/12 04:32:13;;;;;;;26.67;20.20;;;15.30;99.90;;;;;;5067264;28;20025;-36
2022/09/12 04:34:39;;;;;;;24.30;18.20;;;15.20;99.90;;;;;;5065986;28;20415;-37
2022/09/12 04:37:04;;;;;;;25.63;19.23;;;15.30;99.90;;;;;;5065935;28;20029;-36
2022/09/12 04:39:30;;;;;;;26.40;20.60;;;15.20;99.90;;;;;;5066752;28;20107;-38
2022/09/12 04:41:56;;;;;;;29.88;21.48;;;15.20;99.90;;;;;;5065948;28;20398;-35
2022/09/12 04:44:21;;;;;;;26.25;18.75;;;15.20;99.90;;;;;;5066369;28;20468;-36
2022/09/12 04:46:47;;;;;;;30.45;21.40;;;15.20;99.90;;;;;;5066256;28;20036;-37
2022/09/12 04:49:15;;;;;;;25.77;19.27;;;15.20;99.90;;;;;;5065804;28;20482;-36
2022/09/12 04:51:41;;;;;;;25.13;18.05;;;15.20;99.90;;;;;;5066246;28;20043;-36
2022/09/12 04:54:11;;;;;;;26.38;19.85;;;15.20;99.90;;;;;;5066342;28;20455;-37
2022/09/12 04:56:39;;;;;;;26.33;19.63;;;15.20;99.90;;;;;;5065101;28;20488;-37
2022/09/12 04:59:05;;;;;;;28.00;18.90;;;15.20;99.90;;;;;;5066404;28;20035;-36
2022/09/12 05:01:30;;;;;;;23.73;18.23;;;15.20;99.90;;;;;;5066136;28;20035;-36
2022/09/12 05:03:58;;;;;;;26.60;19.52;;;15.20;99.90;;;;;;5065469;28;20251;-36
2022/09/12 05:06:27;;;;;;;23.60;17.50;;;15.20;99.90;;;;;;5065813;28;20056;-36
2022/09/12 05:08:53;;;;;;;28.60;21.08;;;15.20;99.90;;;;;;5065905;28;20024;-36
2022/09/12 05:11:22;;;;;;;28.90;20.98;;;15.20;99.90;;;;;;5065405;28;20561;-37
2022/09/12 05:13:47;;;;;;;30.65;20.90;;;15.20;99.90;;;;;;5065056;28;20027;-38
2022/09/12 05:16:15;;;;;;;28.50;21.00;;;15.30;99.90;;;;;;5066371;28;20032;-37
2022/09/12 05:18:41;;;;;;;31.27;21.83;;;15.20;99.90;;;;;;5064628;28;20025;-37
2022/09/12 05:21:10;;;;;;;29.90;21.75;;;15.20;99.90;;;;;;5065697;28;20060;-37
2022/09/12 05:23:35;;;;;;;29.02;21.60;;;15.20;99.90;;;;;;5064838;28;20070;-36
2022/09/12 05:26:03;;;;;;;31.83;22.52;;;15.30;99.90;;;;;;5069520;28;20052;-37
2022/09/12 05:28:34;;;;;;;28.65;21.08;;;15.30;99.90;;;;;;5068793;28;20486;-38
2022/09/12 05:31:16;;;;;;;27.20;20.17;;;15.30;99.90;;;;;;5064471;28;20041;-38
2022/09/12 05:33:43;;;;;;;31.90;21.63;;;15.40;99.90;;;;;;5065098;28;20725;-36
2022/09/12 05:36:15;;;;;;;30.52;20.60;;;15.40;99.90;;;;;;5063553;28;20414;-38
2022/09/12 05:38:41;;;;;;;29.35;20.27;;;15.50;99.90;;;;;;5063075;28;20040;-36
2022/09/12 05:41:11;;;;;;;31.90;21.10;;;15.50;99.90;;;;;;5064376;28;20102;-37
2022/09/12 05:43:38;;;;;;;30.27;20.75;;;15.50;99.90;;;;;;5063886;28;20027;-36
2022/09/12 05:46:11;;;;;;;29.48;19.50;;;15.50;99.90;;;;;;5063446;28;20036;-37
2022/09/12 05:48:38;;;;;;;27.63;19.75;;;15.50;99.90;;;;;;5064430;28;20347;-37
2022/09/12 05:51:10;;;;;;;29.77;20.40;;;15.50;99.90;;;;;;5064112;28;20460;-36
2022/09/12 05:53:36;;;;;;;27.45;19.95;;;15.50;99.90;;;;;;5063369;28;20020;-37
2022/09/12 05:56:05;;;;;;;31.23;20.67;;;15.50;99.90;;;;;;5063866;28;20415;-37
2022/09/12 05:58:30;;;;;;;32.95;21.30;;;15.50;99.90;;;;;;5063761;28;20021;-37
2022/09/12 06:01:01;;;;;;;32.13;20.95;;;15.60;99.90;;;;;;5062921;28;20621;-36
2022/09/12 06:03:27;;;;;;;33.53;22.20;;;15.60;99.90;;;;;;5064015;28;20466;-37
2022/09/12 06:05:52;;;;;;;32.42;21.08;;;15.60;99.90;;;;;;5063165;28;20028;-39
2022/09/12 06:08:18;;;;;;;32.33;20.55;;;15.70;99.90;;;;;;5064206;28;20035;-37
2022/09/12 06:10:43;;;;;;;31.92;21.05;;;15.70;99.90;;;;;;5064128;28;20032;-38
2022/09/12 06:13:09;;;;;;;30.88;21.08;;;15.70;99.90;;;;;;5063063;28;20471;-37
2022/09/12 06:15:34;;;;;;;35.10;21.75;;;15.70;99.90;;;;;;5063713;28;20298;-38
2022/09/12 06:18:00;;;;;;;32.75;21.48;;;15.80;99.90;;;;;;5063865;28;20021;-37
2022/09/12 06:20:25;;;;;;;32.45;20.98;;;15.80;99.90;;;;;;5062885;28;20055;-37
2022/09/12 06:22:54;;;;;;;31.50;20.73;;;15.80;99.90;;;;;;5063709;28;20380;-44
2022/09/12 06:25:20;;;;;;;32.33;20.60;;;15.80;99.90;;;;;;5064508;28;20066;-37
2022/09/12 06:27:46;;;;;;;30.48;20.65;;;15.90;99.90;;;;;;5062297;28;20104;-36
2022/09/12 06:30:12;;;;;;;30.52;19.52;;;15.90;99.90;;;;;;5064275;28;20044;-37
2022/09/12 06:32:38;;;;;;;32.95;21.35;;;15.90;99.90;;;;;;5064198;28;20495;-38
2022/09/12 06:35:04;;;;;;;31.33;21.23;;;15.90;99.90;;;;;;5063007;28;20070;-36
2022/09/12 06:37:31;;;;;;;33.67;22.30;;;16.00;99.90;;;;;;5064441;28;20376;-38
2022/09/12 06:39:57;;;;;;;34.45;23.10;;;16.00;99.90;;;;;;5064092;28;20035;-38
2022/09/12 06:42:22;;;;;;;37.08;22.95;;;15.90;99.90;;;;;;5064175;28;20025;-37
2022/09/12 06:44:49;;;;;;;31.40;21.02;;;15.90;99.90;;;;;;5063633;28;20043;-37
2022/09/12 06:47:14;;;;;;;35.53;21.95;;;15.90;99.90;;;;;;5064306;28;20051;-37
2022/09/12 06:49:40;;;;;;;33.05;21.05;;;15.90;99.90;;;;;;5063459;28;20056;-36
2022/09/12 06:52:06;;;;;;;35.50;22.38;;;15.90;99.90;;;;;;5063453;28;20017;-37
2022/09/12 06:54:31;;;;;;;32.95;22.27;;;15.90;99.90;;;;;;5064139;28;20123;-37
2022/09/12 06:56:57;;;;;;;32.38;21.20;;;15.90;99.90;;;;;;5062839;28;20041;-38
2022/09/12 06:59:22;;;;;;;36.42;22.77;;;15.90;99.90;;;;;;5064347;28;20079;-36
2022/09/12 07:01:48;;;;;;;32.58;22.58;;;16.00;99.90;;;;;;5063349;28;20222;-38
2022/09/12 07:04:13;;;;;;;34.60;22.23;;;16.00;99.90;;;;;;5063822;28;20025;-36
2022/09/12 07:06:40;;;;;;;33.85;22.20;;;16.00;99.90;;;;;;5064109;28;20439;-38
2022/09/12 07:09:12;;;;;;;35.75;22.50;;;16.10;99.90;;;;;;5066818;28;20029;-36
2022/09/12 07:11:39;;;;;;;31.40;21.53;;;16.10;99.90;;;;;;5067714;28;20039;-37
2022/09/12 07:14:06;;;;;;;32.35;21.73;;;16.10;99.90;;;;;;5067560;28;20114;-37
2022/09/12 07:16:34;;;;;;;34.80;21.52;;;16.10;99.90;;;;;;5066929;28;20925;-37
2022/09/12 07:19:01;;;;;;;35.03;21.98;;;16.20;99.90;;;;;;5068487;28;20717;-38
2022/09/12 07:21:28;;;;;;;30.65;20.08;;;16.20;99.90;;;;;;5067468;28;20044;-37
2022/09/12 07:23:56;;;;;;;32.28;20.73;;;16.20;99.90;;;;;;5067104;28;20054;-37
2022/09/12 07:26:23;;;;;;;33.65;21.98;;;16.20;99.90;;;;;;5067671;28;20047;-37
2022/09/12 07:28:55;;;;;;;33.30;21.98;;;16.20;99.90;;;;;;5068029;28;20028;-38
2022/09/12 07:31:22;;;;;;;35.55;22.40;;;16.20;99.90;;;;;;5067224;28;20031;-40
2022/09/12 07:33:49;;;;;;;27.45;19.33;;;16.20;99.90;;;;;;5066445;28;20440;-39
2022/09/12 07:36:16;;;;;;;29.92;20.75;;;16.30;99.90;;;;;;5067816;28;20370;-37
2022/09/12 07:38:43;;;;;;;27.92;20.23;;;16.30;99.90;;;;;;5063438;28;20033;-37
2022/09/12 07:41:13;;;;;;;27.10;18.50;;;16.30;99.90;;;;;;5067648;28;20288;-37
2022/09/12 07:43:41;;;;;;;29.63;19.90;;;16.40;99.90;;;;;;5066248;28;20438;-38
2022/09/12 07:46:08;;;;;;;30.63;19.30;;;16.40;99.90;;;;;;5067098;28;20866;-38
2022/09/12 07:48:33;;;;;;;28.70;19.40;;;16.50;99.90;;;;;;5066761;28;20032;-40
2022/09/12 07:51:02;;;;;;;28.02;19.58;;;16.60;99.90;;;;;;5067251;28;20032;-37
2022/09/12 07:53:37;;;;;;;30.80;20.63;;;16.60;99.90;;;;;;5065962;28;20116;-38
2022/09/12 07:56:04;;;;;;;29.38;20.33;;;16.60;99.90;;;;;;5047241;28;20039;-38
2022/09/12 07:58:30;;;;;;;30.38;19.92;;;16.70;99.90;;;;;;5060891;28;20040;-38
2022/09/12 08:01:04;;;;;;;26.75;19.20;;;16.70;99.90;;;;;;5066728;28;20032;-37
2022/09/12 08:03:30;;;;;;;27.52;20.27;;;16.70;99.90;;;;;;5066131;28;20540;-37
2022/09/12 08:06:05;;;;;;;27.23;19.60;;;16.70;99.90;;;;;;5065857;28;20024;-37
2022/09/12 08:08:31;;;;;;;27.65;19.70;;;16.70;99.90;;;;;;5066907;28;20345;-38
2022/09/12 08:11:01;;;;;;;28.30;18.50;;;16.70;99.90;;;;;;5067605;28;20039;-38
2022/09/12 08:13:28;;;;;;;23.77;17.83;;;16.80;99.90;;;;;;5066221;28;20017;-38
2022/09/12 08:15:58;;;;;;;23.73;16.70;;;16.90;99.90;;;;;;5067004;28;20186;-36
2022/09/12 08:18:25;;;;;;;30.02;20.38;;;16.90;99.90;;;;;;5065900;28;20031;-37
2022/09/12 08:21:03;;;;;;;25.35;18.27;;;17.00;99.90;;;;;;5065835;28;20111;-37
2022/09/12 08:23:29;;;;;;;28.30;18.83;;;17.00;99.90;;;;;;5066507;28;20380;-38
2022/09/12 08:25:57;;;;;;;28.35;20.33;;;17.00;99.90;;;;;;5067097;28;20028;-38
2022/09/12 08:28:24;;;;;;;28.10;19.02;;;17.10;99.90;;;;;;5065447;28;20035;-37
2022/09/12 08:30:49;;;;;;;28.83;19.52;;;17.20;99.90;;;;;;5065770;28;20052;-38
2022/09/12 08:33:15;;;;;;;27.25;20.00;;;17.20;99.90;;;;;;5066828;28;20464;-37
2022/09/12 08:35:40;;;;;;;27.55;18.45;;;17.20;99.90;;;;;;5065814;28;20037;-37
2022/09/12 08:38:06;;;;;;;23.77;17.30;;;17.30;99.90;;;;;;5066996;28;20023;-37
2022/09/12 08:40:38;;;;;;;24.45;16.65;;;17.30;99.90;;;;;;5065940;28;20455;-37
2022/09/12 08:43:14;;;;;;;;;;;17.30;99.90;;;;;;5066889;28;20024;-36
2022/09/12 08:45:53;;;;;;;22.02;15.48;;;17.40;99.90;;;;;;5066516;28;19919;-36
2022/09/12 08:48:18;;;;;;;21.83;15.30;;;17.50;99.90;;;;;;5066439;28;20128;-37
2022/09/12 08:50:46;;;;;;;19.77;15.23;;;17.50;99.90;;;;;;5065810;28;20123;-37
2022/09/12 08:53:17;;;;;;;21.95;16.00;;;17.60;99.90;;;;;;5065895;28;20389;-37
2022/09/12 08:55:45;;;;;;;19.73;15.00;;;17.60;99.90;;;;;;5065191;28;20032;-37
2022/09/12 08:58:19;;;;;;;21.33;15.95;;;17.70;99.90;;;;;;5066019;28;20037;-37
2022/09/12 09:01:10;;;;;;;21.88;16.13;;;17.80;99.90;;;;;;5065067;28;20029;-37
2022/09/12 09:03:55;;;;;;;21.42;15.25;;;17.80;99.90;;;;;;5043590;28;20044;-37
2022/09/12 09:06:47;;;;;;;20.38;14.73;;;17.90;99.90;;;;;;5065345;28;20119;-37
2022/09/12 09:09:19;;;;;;;18.67;13.70;;;17.90;99.90;;;;;;5065368;28;20485;-36
2022/09/12 09:12:02;;;;;;;18.95;14.18;;;18.00;99.90;;;;;;5065617;28;20421;-37
2022/09/12 09:15:04;;;;;;;17.38;13.27;;;18.10;99.90;;;;;;5065540;28;20029;-38
2022/09/12 09:17:43;;;;;;;17.08;12.02;;;18.20;99.90;;;;;;5055178;28;20107;-37
2022/09/12 09:20:29;;;;;;;16.85;12.13;;;18.30;99.90;;;;;;5065972;28;20456;-37
2022/09/12 09:23:05;;;;;;;16.23;11.63;;;18.40;99.90;;;;;;5065123;28;20048;-39
2022/09/12 09:25:49;;;;;;;16.55;12.25;;;18.50;99.90;;;;;;5065744;28;20032;-37
2022/09/12 09:28:25;;;;;;;14.48;11.10;;;18.60;99.90;;;;;;5065868;28;20028;-37
2022/09/12 09:30:51;;;;;;;14.75;11.18;;;18.70;99.90;;;;;;5064209;28;20036;-37
2022/09/12 09:33:21;;;;;;;11.10;9.32;;;18.80;99.90;;;;;;5064919;28;20499;-38
2022/09/12 09:35:58;;;;;;;12.15;9.50;;;18.80;99.90;;;;;;5064870;28;20028;-39
2022/09/12 09:38:27;;;;;;;10.73;8.55;;;19.00;99.90;;;;;;5064688;28;20052;-38
2022/09/12 09:41:30;;;;;;;10.50;8.85;;;19.10;99.90;;;;;;5065180;28;20028;-38
2022/09/12 09:43:57;;;;;;;12.07;9.52;;;19.10;99.90;;;;;;5064194;28;20075;-39
2022/09/12 09:46:23;;;;;;;9.80;7.95;;;19.30;99.90;;;;;;5064884;28;20603;-39
2022/09/12 09:48:50;;;;;;;8.25;7.30;;;19.40;99.90;;;;;;5065291;28;20032;-38
2022/09/12 09:51:20;;;;;;;9.45;7.88;;;19.50;99.90;;;;;;5064412;28;20119;-38
2022/09/12 09:53:56;;;;;;;9.60;8.00;;;19.60;99.90;;;;;;5064049;28;20483;-38
2022/09/12 09:56:26;;;;;;;8.45;7.55;;;19.60;99.90;;;;;;5064555;28;20136;-37
2022/09/12 09:58:52;;;;;;;8.52;7.00;;;19.70;99.90;;;;;;5064366;28;20070;-38
2022/09/12 10:01:18;;;;;;;8.73;7.32;;;19.70;99.90;;;;;;5065231;28;20423;-37
2022/09/12 10:03:50;;;;;;;8.40;7.43;;;19.80;99.90;;;;;;5064084;28;20369;-39
2022/09/12 10:06:18;;;;;;;8.07;7.27;;;19.80;99.90;;;;;;5063943;28;20032;-36
2022/09/12 10:08:44;;;;;;;10.13;7.47;;;19.80;99.90;;;;;;5064541;28;20029;-38
2022/09/12 10:11:22;;;;;;;7.93;7.13;;;19.90;99.90;;;;;;5063860;28;20037;-36
2022/09/12 10:13:51;;;;;;;9.13;7.47;;;20.00;99.90;;;;;;5063052;28;20020;-37
2022/09/12 10:16:21;;;;;;;7.47;6.13;;;20.10;99.90;;;;;;5064867;28;20044;-38
2022/09/12 10:18:49;;;;;;;7.38;6.63;;;20.20;99.90;;;;;;5063528;28;20093;-36
2022/09/12 10:21:28;;;;;;;7.47;6.50;;;20.20;99.90;;;;;;5063921;28;20032;-40
2022/09/12 10:24:21;;;;;;;8.30;6.63;;;20.30;99.90;;;;;;5063701;28;20348;-37
2022/09/12 10:26:56;;;;;;;11.38;6.63;;;20.40;99.90;;;;;;5062967;28;20029;-36
2022/09/12 10:29:32;;;;;;;8.05;6.85;;;20.50;99.90;;;;;;5060943;28;20463;-37
2022/09/12 10:32:03;;;;;;;8.25;7.45;;;20.50;99.90;;;;;;5064500;28;20671;-38
2022/09/12 10:34:39;;;;;;;8.68;7.80;;;20.60;99.90;;;;;;5062740;28;20016;-38
2022/09/12 10:37:16;;;;;;;8.73;7.65;;;20.70;99.90;;;;;;5065058;28;20040;-37
2022/09/12 10:39:52;;;;;;;8.65;7.50;;;20.70;99.90;;;;;;5064495;28;20056;-37
2022/09/12 10:42:43;;;;;;;7.68;6.75;;;20.80;99.90;;;;;;5062862;28;20032;-37
2022/09/12 10:45:20;;;;;;;7.72;6.55;;;20.80;99.90;;;;;;5064112;28;20377;-37
2022/09/12 10:47:47;;;;;;;7.03;6.18;;;20.80;99.90;;;;;;5063535;28;20028;-38
2022/09/12 10:50:34;;;;;;;6.10;5.50;;;20.80;99.90;;;;;;5064424;28;20563;-36
2022/09/12 10:53:13;;;;;;;9.07;8.10;;;20.80;99.90;;;;;;5063811;28;20047;-37
2022/09/12 10:55:55;;;;;;;7.10;6.45;;;20.80;99.90;;;;;;5062913;28;20020;-36
2022/09/12 10:58:38;;;;;;;6.82;6.13;;;20.90;99.90;;;;;;5064843;28;20059;-37
2022/09/12 11:01:25;;;;;;;7.45;6.65;;;21.00;99.90;;;;;;5054966;28;20078;-37
2022/09/12 11:04:27;;;;;;;6.30;5.70;;;21.10;99.90;;;;;;5063855;28;20099;-44
2022/09/12 11:07:07;;;;;;;6.72;5.18;;;21.20;99.90;;;;;;5063467;28;20539;-38
2022/09/12 11:09:48;;;;;;;6.13;5.53;;;21.20;99.90;;;;;;5063180;28;20032;-38
2022/09/12 11:12:31;;;;;;;6.18;5.57;;;21.20;99.90;;;;;;5063812;28;20070;-38
2022/09/12 11:15:26;;;;;;;5.40;4.90;;;21.30;99.90;;;;;;5063523;28;20040;-38
2022/09/12 11:18:22;;;;;;;6.68;6.07;;;21.30;99.90;;;;;;5054911;28;20229;-38
2022/09/12 11:21:15;;;;;;;6.30;5.75;;;21.30;99.90;;;;;;5063219;28;20032;-38
2022/09/12 11:24:20;;;;;;;5.78;5.13;;;21.50;99.90;;;;;;5063247;28;20078;-38
2022/09/12 11:27:13;;;;;;;5.40;4.90;;;21.60;99.90;;;;;;5052699;28;20150;-38
2022/09/12 11:29:51;;;;;;;4.88;4.32;;;21.60;99.90;;;;;;5062967;28;20039;-36
2022/09/12 11:32:42;;;;;;;5.55;4.60;;;21.70;99.90;;;;;;5063996;28;20074;-38
2022/09/12 11:35:26;;;;;;;3.67;3.38;;;21.80;99.90;;;;;;5063950;28;20111;-38
2022/09/12 11:38:07;;;;;;;4.88;3.80;;;21.90;99.90;;;;;;5063224;28;20058;-36
2022/09/12 11:41:03;;;;;;;4.38;3.97;;;22.00;99.90;;;;;;5063255;28;20047;-37
2022/09/12 11:43:57;;;;;;;4.22;3.83;;;22.00;99.90;;;;;;5062443;28;20397;-38
2022/09/12 11:46:36;;;;;;;3.47;3.17;;;22.20;99.90;;;;;;5045836;28;20067;-35
2022/09/12 11:49:08;;;;;;;3.53;3.22;;;22.20;99.90;;;;;;5063659;28;20035;-36
2022/09/12 11:51:44;;;;;;;3.65;3.35;;;22.30;99.90;;;;;;5062664;28;20149;-38
2022/09/12 11:54:34;;;;;;;4.25;3.95;;;22.30;99.90;;;;;;5063648;28;20132;-39
2022/09/12 11:57:12;;;;;;;4.30;3.90;;;22.40;99.90;;;;;;5066640;28;20487;-37
2022/09/12 11:59:46;;;;;;;3.90;3.60;;;22.50;99.90;;;;;;5066334;28;20029;-36
2022/09/12 12:02:23;;;;;;;3.60;3.10;;;22.60;99.90;;;;;;5066865;28;20476;-38
2022/09/12 12:05:21;;;;;;;3.45;3.13;;;22.70;99.90;;;;;;5066535;28;20527;-36
2022/09/12 12:07:58;;;;;;;3.00;2.80;;;22.70;99.90;;;;;;5063688;28;20039;-38
2022/09/12 12:10:55;;;;;;;3.17;2.85;;;22.70;99.90;;;;;;5067097;28;20024;-38
2022/09/12 12:13:33;;;;;;;4.25;3.33;;;22.80;99.90;;;;;;5055113;28;20094;-38
2022/09/12 12:16:21;;;;;;;3.35;3.05;;;22.80;99.90;;;;;;5067146;28;20063;-38
2022/09/12 12:18:59;;;;;;;3.42;3.10;;;22.90;99.70;;;;;;5063350;28;20043;-37
2022/09/12 12:21:30;;;;;;;3.17;2.90;;;22.90;99.30;;;;;;5066433;28;20031;-37
2022/09/12 12:24:08;;;;;;;3.53;3.17;;;22.90;99.30;;;;;;5066628;28;20028;-38
2022/09/12 12:26:39;;;;;;;3.75;3.45;;;23.00;98.70;;;;;;5065907;28;20368;-38
2022/09/12 12:29:10;;;;;;;3.67;3.38;;;23.00;98.50;;;;;;5067016;28;20028;-38
2022/09/12 12:31:57;;;;;;;2.92;2.72;;;23.00;98.70;;;;;;5066663;28;20032;-38
2022/09/12 12:34:33;;;;;;;3.50;3.20;;;23.00;98.90;;;;;;5066436;28;20052;-37
2022/09/12 12:37:22;;;;;;;3.90;3.50;;;23.00;98.90;;;;;;5064711;28;20043;-37
2022/09/12 12:39:59;;;;;;;4.63;2.80;;;23.10;98.50;;;;;;5065471;28;20025;-38
2022/09/12 12:42:31;;;;;;;4.57;4.18;;;23.10;98.50;;;;;;5066559;28;20111;-37
2022/09/12 12:44:58;;;;;;;4.00;3.60;;;23.20;97.90;;;;;;5066871;28;20066;-36
2022/09/12 12:47:37;;;;;;;4.05;3.15;;;23.30;97.80;;;;;;5065418;28;20025;-37
2022/09/12 12:50:23;;;;;;;4.38;3.65;;;23.40;98.20;;;;;;5066503;28;20059;-38
2022/09/12 12:53:01;;;;;;;4.40;4.00;;;23.40;97.90;;;;;;5065906;28;20665;-38
2022/09/12 12:55:30;;;;;;;3.45;2.78;;;23.50;97.70;;;;;;5065654;28;20066;-37
2022/09/12 12:57:58;;;;;;;3.33;3.03;;;23.50;97.90;;;;;;5065137;28;20044;-37
2022/09/12 13:00:39;;;;;;;3.80;3.50;;;23.50;97.90;;;;;;5066272;28;20025;-38
2022/09/12 13:03:05;;;;;;;2.97;2.78;;;23.50;97.80;;;;;;5065355;28;20104;-38